EA1JL Noia ES current weather conditions

sailwx.info

Wind from 348 at 1 knots gusting 2

Air temperature 12.8° C
Dewpoint 10.7° C

Last reported at 2018-Apr-24 04:00 UTC.
Time now 2018-Apr-24 05:07 UTC

Location: N 42°48' W 008°54'.
View on Google Maps.

See reports from other nearby stations

  
Tides and Currents Weather Stations Pressure Air Temp Water Temp Dewpoint Dewpoint Depression Visibility Wind Speed Wind Dir Waves Ship Positions
date/time (UTC)wind fromknots sea level pressurealtimeterstation pressurevisibilityair tempwater tempwave heightnotes
2018-Apr-24 04:00 348 1 gusting 2 12.8
2018-Apr-24 03:15 042 1 gusting 5 13.3
2018-Apr-24 03:00 025 3 gusting 6 13.3
2018-Apr-24 02:15 153 12.8
2018-Apr-24 01:45 041 12.8
2018-Apr-24 00:30 025 3 gusting 10 12.8
2018-Apr-24 00:15 012 5 gusting 10 13.3
2018-Apr-23 23:30 007 6 gusting 12 13.3
2018-Apr-23 23:15 346 6 gusting 13 13.3
2018-Apr-23 22:45 009 7 gusting 17 13.3
2018-Apr-23 22:30 006 5 gusting 13 13.3
2018-Apr-23 22:15 006 6 gusting 14 13.9
2018-Apr-23 21:45 001 11 gusting 17 13.9
2018-Apr-23 21:15 013 6 gusting 13 14.4
2018-Apr-23 21:00 014 4 gusting 13 13.9
2018-Apr-23 20:45 002 8 gusting 14 13.9
2018-Apr-23 20:15 007 8 gusting 17 13.9
2018-Apr-23 19:45 005 11 gusting 18 14.4
2018-Apr-23 19:30 15.0
2018-Apr-23 19:00 355 14 gusting 21 16.1
2018-Apr-23 18:30 007 13 gusting 20 18.3
2018-Apr-23 18:15 357 13 gusting 19 18.9
2018-Apr-23 18:00 349 14 gusting 19 19.4
2018-Apr-23 17:45 358 12 gusting 19 20.0
2018-Apr-23 17:30 352 12 gusting 19 20.0
2018-Apr-23 17:16 004 13 gusting 18 20.0
2018-Apr-23 17:00 358 12 gusting 18 20.0
2018-Apr-23 16:45 007 12 gusting 18 20.6
2018-Apr-23 16:30 354 13 gusting 20 20.6
2018-Apr-23 16:00 21.1
2018-Apr-23 15:45 356 12 gusting 20 21.1
2018-Apr-23 15:15 353 13 gusting 18 22.2
2018-Apr-23 15:00 353 13 gusting 18 22.8
2018-Apr-23 14:30 005 12 gusting 19 23.9
2018-Apr-23 13:45 143 1 gusting 8 25.0
2018-Apr-23 13:15 355 6 gusting 11 23.9
2018-Apr-23 13:00 353 7 gusting 12 23.3
2018-Apr-23 12:15 015 4 gusting 8 22.8
2018-Apr-23 11:45 351 5 gusting 11 21.1
2018-Apr-23 11:15 353 5 gusting 13 19.4
2018-Apr-23 10:30 051 3 gusting 10 17.8
2018-Apr-23 09:45 064 5 gusting 13 15.0
2018-Apr-23 09:15 041 5 gusting 13 14.4
2018-Apr-23 09:00 024 3 gusting 13 14.4
2018-Apr-23 08:15 048 5 gusting 12 12.8
2018-Apr-23 07:45 359 1 gusting 12 12.2
2018-Apr-23 07:15 050 1 gusting 7 12.2
2018-Apr-23 07:00 081 1 gusting 6 11.7
2018-Apr-23 06:45 325 3 gusting 10 11.7
2018-Apr-23 06:30 047 2 gusting 12 11.7
2018-Apr-23 06:15 317 1 gusting 10 11.7
2018-Apr-23 05:45 031 2 gusting 12 11.7
2018-Apr-23 05:15 006 3 gusting 10 11.7
2018-Apr-23 05:00 345 2 gusting 8 11.7
2018-Apr-23 04:45 028 0 gusting 7 11.7
2018-Apr-23 04:00 057 0 gusting 12 12.2
2018-Apr-23 03:30 009 4 gusting 10 12.2
2018-Apr-23 03:15 006 3 gusting 7 12.2
2018-Apr-23 03:00 056 1 gusting 7 12.2
2018-Apr-23 02:45 069 1 gusting 6 12.2
2018-Apr-23 02:30 037 2 gusting 10 12.2
2018-Apr-23 02:00 026 4 gusting 8 12.2
2018-Apr-23 01:45 061 12.2
2018-Apr-23 01:15 12.2
2018-Apr-23 01:00 005 0 gusting 4 11.7
2018-Apr-23 00:45 061 12.2
2018-Apr-23 00:15 073 0 gusting 1 11.7
2018-Apr-23 00:00 124 11.7
2018-Apr-22 23:45 307 12.2
2018-Apr-22 23:00 034 1 gusting 6 12.8
2018-Apr-22 22:30 014 1 gusting 8 12.2
2018-Apr-22 21:45 010 1 gusting 6 12.8
2018-Apr-22 21:15 332 0 gusting 12 12.8
2018-Apr-22 20:45 355 5 gusting 10 13.3
2018-Apr-22 20:30 032 0 gusting 6 13.3
2018-Apr-22 20:15 029 0 gusting 5 13.9
2018-Apr-22 20:00 047 13.9
2018-Apr-22 19:45 349 1 gusting 8 13.9
2018-Apr-22 19:15 352 4 gusting 8 15.0
2018-Apr-22 18:45 009 5 gusting 12 15.0
2018-Apr-22 18:30 15.6
2018-Apr-22 18:00 005 13 gusting 19 16.7
2018-Apr-22 17:15 354 12 gusting 17 19.4
2018-Apr-22 16:45 334 8 gusting 13 21.1
2018-Apr-22 16:30 281 4 gusting 10 20.6
2018-Apr-22 16:15 316 2 gusting 10 20.0
2018-Apr-22 15:45 273 5 gusting 11 20.6
2018-Apr-22 15:30 250 7 gusting 11 20.0
2018-Apr-22 15:15 280 5 gusting 10 18.9
2018-Apr-22 15:00 281 5 gusting 11 18.9
2018-Apr-22 13:00 266 6 gusting 10 18.3
2018-Apr-22 12:15 277 5 gusting 10 17.8
2018-Apr-22 12:00 274 5 gusting 10 17.2
2018-Apr-22 11:45 279 6 gusting 10 17.2
2018-Apr-22 11:30 277 4 gusting 11 17.2
2018-Apr-22 11:15 269 6 gusting 11 16.7
2018-Apr-22 10:30 272 1 gusting 5 16.7
2018-Apr-22 08:45 236 11.7
2018-Apr-22 08:30 236 11.7
2018-Apr-22 08:15 236 11.7
2018-Apr-22 07:45 236 11.7
2018-Apr-22 07:30 236 11.7
2018-Apr-22 06:30 098 0 gusting 0 11.1
2018-Apr-22 06:15 353 11.1
2018-Apr-22 05:30 132 11.1
2018-Apr-22 05:15 130 11.1
2018-Apr-22 05:00 040 11.7